Wing, Alabama
Current Conditions -  °F | °C
As of 2:58 AM on Thursday 23 Oct 2014 (Local Time) from K0J4 Reporting Station
Clear Clear  
Wind Chill: 10°   Ceiling: Unl
Heat Index: 10°   Visibility: 10mi
Dew Point:   Wind: 5mph
Humidity: 77%   Direction: 10°N
Pressure: 30.08"   Gusts: NA
Location:  31.03°N, 86.61°W
Report Text: K0J4 230758Z AUTO 01004KT 10SM CLR 10/06 A3008 RMK AO2 SLP182 T01000061 $
Loading
Personal Weather Stations






























Interactive Weather Map
Tropical Storm Tracking
New forecast layout! Learn more

10-Day Weather Forecast

Advertisements
Track Severe Weather on mobile